Austin, Texas
Traffic Map
Current Weather Conditions
Austin, Texas
Clear
Clear

Feels Like: 9°
Wind Chill: Ceiling: Unl
Heat Index: Visibility: 10mi
Dew Point: Wind: 0mph
Humidity: 58% Direction: ° ()
Pressure: 30.37in Gusts: 0mph
Raw Report DataKATT 110451Z AUTO 00000KT 10SM CLR 09/01 A3037 RMK AO2 SLP284 T00890011
Traffic Incident Summary
Active as of:
Severity:
Category:
InformationThere was an issue retrieving the traffic information for this location. Please try a different location or try again shortly.
Advertisements